sim
Sign-in with your pilot id or email,
or register
Callsign
Passwort

Schedule Details

Flight Number: OEO6707
Departure: Johannesburg OR Tambo International Airport (FAOR) at 18:05
Arrival: Munich Airport (EDDM) at 05:30

Weather Information
Getting current METAR information for FAOR 261800Z 19006KT CAVOK 14/M09 Q1017 NOSIG
Getting current METAR information for EDDM 261750Z 25022G32KT 9999 -RA BKN023 OVC042 07/04 Q1001 NOSIG

Schedule Frequency

Route Map